sensor_id;sensor_type;location;lat;lon;timestamp;pressure;altitude;pressure_sealevel;temperature;humidity
37068;BME280;22982;42.848;25.468;2022-08-01T00:02:21;95996.69;;;16.09;100.00
37068;BME280;22982;42.848;25.468;2022-08-01T00:07:23;95995.88;;;15.87;100.00
37068;BME280;22982;42.848;25.468;2022-08-01T00:12:26;95973.66;;;15.69;100.00
37068;BME280;22982;42.848;25.468;2022-08-01T00:17:28;95991.41;;;15.78;100.00
37068;BME280;22982;42.848;25.468;2022-08-01T00:22:31;95974.00;;;16.16;100.00
37068;BME280;22982;42.848;25.468;2022-08-01T00:27:34;95960.28;;;15.92;100.00
37068;BME280;22982;42.848;25.468;2022-08-01T00:32:38;95967.44;;;15.49;100.00
37068;BME280;22982;42.848;25.468;2022-08-01T00:37:41;95965.69;;;15.38;100.00
37068;BME280;22982;42.848;25.468;2022-08-01T00:42:43;95958.41;;;15.30;100.00
37068;BME280;22982;42.848;25.468;2022-08-01T00:47:45;95946.03;;;15.31;100.00
37068;BME280;22982;42.848;25.468;2022-08-01T00:52:47;95937.50;;;15.18;100.00
37068;BME280;22982;42.848;25.468;2022-08-01T00:57:52;95948.94;;;15.07;100.00
37068;BME280;22982;42.848;25.468;2022-08-01T01:03:06;95939.53;;;15.35;100.00
37068;BME280;22982;42.848;25.468;2022-08-01T01:08:15;95936.53;;;15.49;100.00
37068;BME280;22982;42.848;25.468;2022-08-01T01:13:35;95939.53;;;15.35;100.00
37068;BME280;22982;42.848;25.468;2022-08-01T01:18:54;95945.78;;;15.13;100.00
37068;BME280;22982;42.848;25.468;2022-08-01T01:24:21;95944.53;;;14.75;100.00
37068;BME280;22982;42.848;25.468;2022-08-01T01:29:37;95938.59;;;14.62;100.00
37068;BME280;22982;42.848;25.468;2022-08-01T01:35:08;95928.75;;;14.85;100.00
37068;BME280;22982;42.848;25.468;2022-08-01T01:40:11;95944.56;;;15.17;100.00
37068;BME280;22982;42.848;25.468;2022-08-01T01:45:16;95922.56;;;15.07;100.00
37068;BME280;22982;42.848;25.468;2022-08-01T01:50:23;95929.41;;;15.19;100.00
37068;BME280;22982;42.848;25.468;2022-08-01T01:55:27;95928.75;;;14.85;100.00
37068;BME280;22982;42.848;25.468;2022-08-01T02:00:31;95917.44;;;14.94;100.00
37068;BME280;22982;42.848;25.468;2022-08-01T02:05:37;95908.03;;;15.01;100.00
37068;BME280;22982;42.848;25.468;2022-08-01T02:10:41;95920.72;;;14.65;100.00
37068;BME280;22982;42.848;25.468;2022-08-01T02:16:05;95911.13;;;14.85;100.00
37068;BME280;22982;42.848;25.468;2022-08-01T02:21:09;95910.03;;;14.55;100.00
37068;BME280;22982;42.848;25.468;2022-08-01T02:26:15;95910.75;;;14.90;100.00
37068;BME280;22982;42.848;25.468;2022-08-01T02:31:21;95885.75;;;14.73;100.00
37068;BME280;22982;42.848;25.468;2022-08-01T02:36:26;95885.81;;;14.62;100.00
37068;BME280;22982;42.848;25.468;2022-08-01T02:41:39;95886.41;;;14.65;100.00
37068;BME280;22982;42.848;25.468;2022-08-01T02:46:50;95884.47;;;14.67;100.00
37068;BME280;22982;42.848;25.468;2022-08-01T02:51:54;95882.72;;;14.45;100.00
37068;BME280;22982;42.848;25.468;2022-08-01T02:56:58;95878.31;;;14.34;100.00
37068;BME280;22982;42.848;25.468;2022-08-01T03:02:03;95883.63;;;14.55;100.00
37068;BME280;22982;42.848;25.468;2022-08-01T03:07:10;95886.25;;;14.67;100.00
37068;BME280;22982;42.848;25.468;2022-08-01T03:12:16;95867.75;;;14.46;100.00
37068;BME280;22982;42.848;25.468;2022-08-01T03:17:22;95871.56;;;14.42;100.00
37068;BME280;22982;42.848;25.468;2022-08-01T03:22:27;95873.06;;;14.67;100.00
37068;BME280;22982;42.848;25.468;2022-08-01T03:27:32;95866.41;;;14.84;100.00
37068;BME280;22982;42.848;25.468;2022-08-01T03:32:35;95860.41;;;14.82;100.00
37068;BME280;22982;42.848;25.468;2022-08-01T03:37:47;95881.78;;;14.79;100.00
37068;BME280;22982;42.848;25.468;2022-08-01T03:43:18;95862.41;;;14.89;100.00
37068;BME280;22982;42.848;25.468;2022-08-01T03:48:28;95875.69;;;14.67;100.00
37068;BME280;22982;42.848;25.468;2022-08-01T03:53:32;95873.06;;;14.67;100.00
37068;BME280;22982;42.848;25.468;2022-08-01T03:58:38;95856.28;;;14.89;100.00
37068;BME280;22982;42.848;25.468;2022-08-01T04:03:42;95870.91;;;14.93;100.00
37068;BME280;22982;42.848;25.468;2022-08-01T04:08:44;95856.06;;;14.60;100.00
37068;BME280;22982;42.848;25.468;2022-08-01T04:13:57;95844.03;;;14.67;100.00
37068;BME280;22982;42.848;25.468;2022-08-01T04:19:00;95864.25;;;14.78;95.47
37068;BME280;22982;42.848;25.468;2022-08-01T04:24:16;95862.28;;;14.91;96.77
37068;BME280;22982;42.848;25.468;2022-08-01T04:29:20;95859.78;;;15.20;98.43
37068;BME280;22982;42.848;25.468;2022-08-01T04:34:26;95857.53;;;15.46;95.27
37068;BME280;22982;42.848;25.468;2022-08-01T04:39:31;95860.53;;;15.63;96.29
37068;BME280;22982;42.848;25.468;2022-08-01T04:44:52;95855.06;;;15.76;92.50
37068;BME280;22982;42.848;25.468;2022-08-01T04:49:54;95860.13;;;16.27;86.04
37068;BME280;22982;42.848;25.468;2022-08-01T04:54:58;95851.66;;;16.92;83.62
37068;BME280;22982;42.848;25.468;2022-08-01T05:00:00;95857.34;;;17.17;80.33
37068;BME280;22982;42.848;25.468;2022-08-01T05:05:04;95860.75;;;17.74;72.18
37068;BME280;22982;42.848;25.468;2022-08-01T05:10:09;95857.03;;;19.21;61.80
37068;BME280;22982;42.848;25.468;2022-08-01T05:15:12;95847.25;;;20.41;55.33
37068;BME280;22982;42.848;25.468;2022-08-01T05:20:16;95839.47;;;20.64;56.77
37068;BME280;22982;42.848;25.468;2022-08-01T05:25:18;95846.28;;;21.88;57.55
37068;BME280;22982;42.848;25.468;2022-08-01T05:30:43;95845.31;;;22.21;50.18
37068;BME280;22982;42.848;25.468;2022-08-01T05:35:46;95837.22;;;22.83;48.14
37068;BME280;22982;42.848;25.468;2022-08-01T05:41:14;95842.88;;;23.41;45.60
37068;BME280;22982;42.848;25.468;2022-08-01T05:46:35;95830.81;;;23.75;43.73
37068;BME280;22982;42.848;25.468;2022-08-01T05:51:39;95843.38;;;24.41;43.26
37068;BME280;22982;42.848;25.468;2022-08-01T05:56:41;95847.94;;;25.55;40.10
37068;BME280;22982;42.848;25.468;2022-08-01T06:01:43;95847.41;;;24.67;38.69
37068;BME280;22982;42.848;25.468;2022-08-01T06:06:46;95857.44;;;25.08;38.44
37068;BME280;22982;42.848;25.468;2022-08-01T06:11:48;95863.19;;;25.83;38.83
37068;BME280;22982;42.848;25.468;2022-08-01T06:16:50;95861.69;;;26.08;37.12
37068;BME280;22982;42.848;25.468;2022-08-01T06:21:53;95853.56;;;25.95;36.86
37068;BME280;22982;42.848;25.468;2022-08-01T06:26:55;95855.31;;;27.71;34.96
37068;BME280;22982;42.848;25.468;2022-08-01T06:31:57;95849.16;;;29.82;31.45
37068;BME280;22982;42.848;25.468;2022-08-01T06:36:59;95825.69;;;31.45;29.04
37068;BME280;22982;42.848;25.468;2022-08-01T06:42:07;95827.81;;;31.43;28.50
37068;BME280;22982;42.848;25.468;2022-08-01T06:47:11;95846.66;;;30.54;29.10
37068;BME280;22982;42.848;25.468;2022-08-01T06:52:13;95819.50;;;31.57;27.65
37068;BME280;22982;42.848;25.468;2022-08-01T06:57:15;95828.06;;;33.50;25.24
37068;BME280;22982;42.848;25.468;2022-08-01T07:02:18;95814.31;;;32.31;27.00
37068;BME280;22982;42.848;25.468;2022-08-01T07:07:23;95802.16;;;31.70;27.22
37068;BME280;22982;42.848;25.468;2022-08-01T07:12:27;95821.22;;;30.55;29.10
37068;BME280;22982;42.848;25.468;2022-08-01T07:17:30;95816.25;;;31.13;27.93
37068;BME280;22982;42.848;25.468;2022-08-01T07:22:32;95819.19;;;30.99;27.80
37068;BME280;22982;42.848;25.468;2022-08-01T07:27:38;95806.72;;;31.10;28.50
37068;BME280;22982;42.848;25.468;2022-08-01T07:32:40;95813.03;;;31.04;27.70
37068;BME280;22982;42.848;25.468;2022-08-01T07:37:42;95799.03;;;29.42;30.11
37068;BME280;22982;42.848;25.468;2022-08-01T07:42:52;95790.09;;;29.85;29.71
37068;BME280;22982;42.848;25.468;2022-08-01T07:47:54;95800.66;;;30.54;28.73
37068;BME280;22982;42.848;25.468;2022-08-01T07:52:57;95809.94;;;29.04;31.23
37068;BME280;22982;42.848;25.468;2022-08-01T07:57:59;95791.88;;;28.40;32.21
37068;BME280;22982;42.848;25.468;2022-08-01T08:03:02;95818.03;;;29.29;31.40
37068;BME280;22982;42.848;25.468;2022-08-01T08:08:05;95793.59;;;28.28;32.49
37068;BME280;22982;42.848;25.468;2022-08-01T08:13:08;95793.81;;;29.84;30.92
37068;BME280;22982;42.848;25.468;2022-08-01T08:18:10;95776.25;;;29.93;31.11
37068;BME280;22982;42.848;25.468;2022-08-01T08:23:15;95799.81;;;29.68;31.09
37068;BME280;22982;42.848;25.468;2022-08-01T08:28:43;95783.91;;;30.76;29.64
37068;BME280;22982;42.848;25.468;2022-08-01T08:33:46;95768.72;;;30.75;29.85
37068;BME280;22982;42.848;25.468;2022-08-01T08:38:48;95777.50;;;31.12;28.99
37068;BME280;22982;42.848;25.468;2022-08-01T08:43:52;95773.47;;;30.49;29.94
37068;BME280;22982;42.848;25.468;2022-08-01T08:48:55;95772.91;;;30.28;30.47
37068;BME280;22982;42.848;25.468;2022-08-01T08:54:00;95753.00;;;29.92;30.88
37068;BME280;22982;42.848;25.468;2022-08-01T08:59:05;95769.94;;;30.30;30.15
37068;BME280;22982;42.848;25.468;2022-08-01T09:04:13;95790.56;;;30.61;30.11
37068;BME280;22982;42.848;25.468;2022-08-01T09:09:16;95758.69;;;29.66;31.33
37068;BME280;22982;42.848;25.468;2022-08-01T09:14:18;95789.28;;;30.15;31.36
37068;BME280;22982;42.848;25.468;2022-08-01T09:19:46;95777.34;;;30.41;31.10
37068;BME280;22982;42.848;25.468;2022-08-01T09:25:09;95761.88;;;29.37;32.02
37068;BME280;22982;42.848;25.468;2022-08-01T09:30:15;95760.50;;;30.21;31.24
37068;BME280;22982;42.848;25.468;2022-08-01T09:35:34;95768.66;;;30.93;30.51
37068;BME280;22982;42.848;25.468;2022-08-01T09:45:55;95801.72;;;28.92;32.95
37068;BME280;22982;42.848;25.468;2022-08-01T09:50:59;95744.25;;;29.53;32.00
37068;BME280;22982;42.848;25.468;2022-08-01T09:56:11;95739.28;;;29.32;32.06
37068;BME280;22982;42.848;25.468;2022-08-01T10:01:15;95762.25;;;29.41;33.20
37068;BME280;22982;42.848;25.468;2022-08-01T10:06:20;95781.44;;;30.44;31.19
37068;BME280;22982;42.848;25.468;2022-08-01T10:11:26;95755.56;;;29.87;31.80
37068;BME280;22982;42.848;25.468;2022-08-01T10:16:38;95785.56;;;28.15;35.11
37068;BME280;22982;42.848;25.468;2022-08-01T10:21:41;95747.66;;;29.49;32.37
37068;BME280;22982;42.848;25.468;2022-08-01T10:27:04;95764.31;;;29.46;32.18
37068;BME280;22982;42.848;25.468;2022-08-01T10:32:14;95766.94;;;29.52;32.84
37068;BME280;22982;42.848;25.468;2022-08-01T10:37:18;95747.91;;;28.72;33.52
37068;BME280;22982;42.848;25.468;2022-08-01T10:42:21;95748.84;;;28.59;33.68
37068;BME280;22982;42.848;25.468;2022-08-01T10:47:27;95784.72;;;28.53;34.88
37068;BME280;22982;42.848;25.468;2022-08-01T10:53:17;95788.28;;;29.10;33.96
37068;BME280;22982;42.848;25.468;2022-08-01T10:58:37;95789.66;;;30.19;31.68
37068;BME280;22982;42.848;25.468;2022-08-01T11:04:14;95781.47;;;29.51;32.45
37068;BME280;22982;42.848;25.468;2022-08-01T11:09:31;95784.75;;;29.35;33.59
37068;BME280;22982;42.848;25.468;2022-08-01T11:25:06;95756.03;;;28.33;35.00
37068;BME280;22982;42.848;25.468;2022-08-01T11:35:14;95749.34;;;28.42;34.62
37068;BME280;22982;42.848;25.468;2022-08-01T11:40:28;95771.03;;;28.22;35.89
37068;BME280;22982;42.848;25.468;2022-08-01T11:45:55;95774.09;;;28.96;34.12
37068;BME280;22982;42.848;25.468;2022-08-01T11:50:58;95755.25;;;28.26;34.73
37068;BME280;22982;42.848;25.468;2022-08-01T11:56:03;95735.41;;;28.14;35.02
37068;BME280;22982;42.848;25.468;2022-08-01T12:01:06;95761.88;;;29.12;33.46
37068;BME280;22982;42.848;25.468;2022-08-01T12:06:09;95736.38;;;29.52;31.62
37068;BME280;22982;42.848;25.468;2022-08-01T12:11:11;95744.50;;;28.83;33.68
37068;BME280;22982;42.848;25.468;2022-08-01T12:16:14;95763.16;;;28.53;34.36
37068;BME280;22982;42.848;25.468;2022-08-01T12:21:17;95743.53;;;28.00;34.48
37068;BME280;22982;42.848;25.468;2022-08-01T12:26:21;95766.97;;;28.00;36.05
37068;BME280;22982;42.848;25.468;2022-08-01T12:31:36;95761.09;;;27.64;36.67
37068;BME280;22982;42.848;25.468;2022-08-01T12:36:38;95741.22;;;28.11;34.56
37068;BME280;22982;42.848;25.468;2022-08-01T12:41:42;95741.66;;;28.07;34.70
37068;BME280;22982;42.848;25.468;2022-08-01T12:46:45;95728.59;;;27.59;35.30
37068;BME280;22982;42.848;25.468;2022-08-01T12:51:49;95725.63;;;27.67;35.54
37068;BME280;22982;42.848;25.468;2022-08-01T12:56:58;95748.19;;;27.80;36.23
37068;BME280;22982;42.848;25.468;2022-08-01T13:02:08;95696.38;;;27.19;36.49
37068;BME280;22982;42.848;25.468;2022-08-01T13:07:10;95706.44;;;27.50;36.42
37068;BME280;22982;42.848;25.468;2022-08-01T13:12:50;95703.06;;;27.68;36.71
37068;BME280;22982;42.848;25.468;2022-08-01T13:17:47;95704.56;;;27.51;35.94
37068;BME280;22982;42.848;25.468;2022-08-01T13:22:52;95708.34;;;27.88;35.96
37068;BME280;22982;42.848;25.468;2022-08-01T13:28:27;95709.19;;;27.24;35.77
37068;BME280;22982;42.848;25.468;2022-08-01T13:33:42;95699.28;;;27.11;36.01
37068;BME280;22982;42.848;25.468;2022-08-01T13:38:45;95705.91;;;27.08;37.02
37068;BME280;22982;42.848;25.468;2022-08-01T13:44:06;95744.38;;;27.22;37.28
37068;BME280;22982;42.848;25.468;2022-08-01T13:49:11;95721.66;;;27.77;35.48
37068;BME280;22982;42.848;25.468;2022-08-01T13:54:17;95680.69;;;27.68;34.79
37068;BME280;22982;42.848;25.468;2022-08-01T13:59:20;95729.59;;;27.58;35.41
37068;BME280;22982;42.848;25.468;2022-08-01T14:04:23;95716.22;;;27.25;35.60
37068;BME280;22982;42.848;25.468;2022-08-01T14:09:25;95702.94;;;27.50;35.48
37068;BME280;22982;42.848;25.468;2022-08-01T14:14:36;95701.78;;;27.71;34.90
37068;BME280;22982;42.848;25.468;2022-08-01T14:19:39;95672.53;;;27.29;35.02
37068;BME280;22982;42.848;25.468;2022-08-01T14:24:49;95720.69;;;27.64;34.95
37068;BME280;22982;42.848;25.468;2022-08-01T14:30:03;95722.00;;;27.48;34.42
37068;BME280;22982;42.848;25.468;2022-08-01T14:35:06;95729.69;;;27.25;34.56
37068;BME280;22982;42.848;25.468;2022-08-01T14:40:09;95732.59;;;27.10;35.81
37068;BME280;22982;42.848;25.468;2022-08-01T14:45:13;95720.78;;;27.38;36.85
37068;BME280;22982;42.848;25.468;2022-08-01T14:50:15;95719.03;;;27.63;35.12
37068;BME280;22982;42.848;25.468;2022-08-01T14:55:18;95736.31;;;27.22;35.93
37068;BME280;22982;42.848;25.468;2022-08-01T15:00:25;95757.03;;;27.02;36.93
37068;BME280;22982;42.848;25.468;2022-08-01T15:05:27;95718.72;;;27.26;36.73
37068;BME280;22982;42.848;25.468;2022-08-01T15:10:30;95753.09;;;27.11;37.32
37068;BME280;22982;42.848;25.468;2022-08-01T15:15:33;95753.94;;;26.71;37.37
37068;BME280;22982;42.848;25.468;2022-08-01T15:20:39;95745.25;;;26.63;37.80
37068;BME280;22982;42.848;25.468;2022-08-01T15:25:41;95738.22;;;26.62;39.81
37068;BME280;22982;42.848;25.468;2022-08-01T15:30:43;95726.19;;;26.78;39.48
37068;BME280;22982;42.848;25.468;2022-08-01T15:35:47;95730.38;;;26.67;38.38
37068;BME280;22982;42.848;25.468;2022-08-01T15:41:00;95711.47;;;26.20;39.36
37068;BME280;22982;42.848;25.468;2022-08-01T15:46:06;95701.09;;;25.97;42.88
37068;BME280;22982;42.848;25.468;2022-08-01T15:51:09;95709.41;;;25.60;44.72
37068;BME280;22982;42.848;25.468;2022-08-01T15:56:13;95708.88;;;25.78;44.40
37068;BME280;22982;42.848;25.468;2022-08-01T16:01:15;95713.28;;;25.93;44.73
37068;BME280;22982;42.848;25.468;2022-08-01T16:06:18;95696.25;;;25.79;42.49
37068;BME280;22982;42.848;25.468;2022-08-01T16:11:20;95724.88;;;26.07;40.90
37068;BME280;22982;42.848;25.468;2022-08-01T16:16:24;95732.69;;;25.95;44.70
37068;BME280;22982;42.848;25.468;2022-08-01T16:21:27;95735.28;;;25.82;41.56
37068;BME280;22982;42.848;25.468;2022-08-01T16:26:30;95723.00;;;25.52;44.21
37068;BME280;22982;42.848;25.468;2022-08-01T16:31:32;95722.91;;;25.32;43.90
37068;BME280;22982;42.848;25.468;2022-08-01T16:36:54;95737.31;;;25.25;42.74
37068;BME280;22982;42.848;25.468;2022-08-01T16:41:57;95718.19;;;25.13;42.21
37068;BME280;22982;42.848;25.468;2022-08-01T16:47:03;95720.00;;;24.99;43.60
37068;BME280;22982;42.848;25.468;2022-08-01T16:52:20;95712.84;;;25.13;42.37
37068;BME280;22982;42.848;25.468;2022-08-01T16:57:29;95746.66;;;25.07;43.78
37068;BME280;22982;42.848;25.468;2022-08-01T17:02:43;95695.66;;;24.72;43.43
37068;BME280;22982;42.848;25.468;2022-08-01T17:07:49;95734.13;;;24.86;46.56
37068;BME280;22982;42.848;25.468;2022-08-01T17:12:51;95742.81;;;24.88;46.85
37068;BME280;22982;42.848;25.468;2022-08-01T17:17:54;95717.00;;;24.59;50.55
37068;BME280;22982;42.848;25.468;2022-08-01T17:22:57;95775.13;;;24.58;53.37
37068;BME280;22982;42.848;25.468;2022-08-01T17:28:01;95743.88;;;23.86;55.73
37068;BME280;22982;42.848;25.468;2022-08-01T17:33:06;95762.63;;;23.71;58.24
37068;BME280;22982;42.848;25.468;2022-08-01T17:38:12;95748.78;;;23.38;59.00
37068;BME280;22982;42.848;25.468;2022-08-01T17:43:15;95768.25;;;23.46;63.59
37068;BME280;22982;42.848;25.468;2022-08-01T17:48:18;95765.03;;;23.06;64.10
37068;BME280;22982;42.848;25.468;2022-08-01T17:53:20;95785.59;;;22.83;65.28
37068;BME280;22982;42.848;25.468;2022-08-01T17:58:26;95760.88;;;22.11;68.84
37068;BME280;22982;42.848;25.468;2022-08-01T18:03:48;95808.13;;;22.11;70.61
37068;BME280;22982;42.848;25.468;2022-08-01T18:08:51;95794.22;;;21.92;70.70
37068;BME280;22982;42.848;25.468;2022-08-01T18:13:57;95847.84;;;22.06;73.15
37068;BME280;22982;42.848;25.468;2022-08-01T18:19:03;95788.22;;;21.42;70.60
37068;BME280;22982;42.848;25.468;2022-08-01T18:24:06;95828.72;;;21.54;74.22
37068;BME280;22982;42.848;25.468;2022-08-01T18:29:09;95838.09;;;21.34;74.29
37068;BME280;22982;42.848;25.468;2022-08-01T18:34:12;95867.59;;;21.32;75.36
37068;BME280;22982;42.848;25.468;2022-08-01T18:39:17;95837.59;;;21.14;76.79
37068;BME280;22982;42.848;25.468;2022-08-01T18:44:21;95848.97;;;20.83;77.37
37068;BME280;22982;42.848;25.468;2022-08-01T18:49:25;95872.78;;;20.84;76.81
37068;BME280;22982;42.848;25.468;2022-08-01T18:54:27;95898.13;;;20.89;77.42
37068;BME280;22982;42.848;25.468;2022-08-01T18:59:33;95882.56;;;20.59;79.49
37068;BME280;22982;42.848;25.468;2022-08-01T19:04:43;95902.81;;;20.36;80.82
37068;BME280;22982;42.848;25.468;2022-08-01T19:09:45;95891.13;;;20.20;79.10
37068;BME280;22982;42.848;25.468;2022-08-01T19:14:48;95926.34;;;20.06;80.21
37068;BME280;22982;42.848;25.468;2022-08-01T19:19:54;95894.88;;;20.01;79.30
37068;BME280;22982;42.848;25.468;2022-08-01T19:25:02;95915.84;;;20.04;78.61
37068;BME280;22982;42.848;25.468;2022-08-01T19:30:08;95936.75;;;20.25;80.84
37068;BME280;22982;42.848;25.468;2022-08-01T19:35:12;95938.44;;;20.35;79.16
37068;BME280;22982;42.848;25.468;2022-08-01T19:40:18;95935.53;;;20.20;82.41
37068;BME280;22982;42.848;25.468;2022-08-01T19:45:30;95944.63;;;20.01;83.08
37068;BME280;22982;42.848;25.468;2022-08-01T19:50:38;95916.44;;;19.64;80.87
37068;BME280;22982;42.848;25.468;2022-08-01T19:55:49;95880.22;;;19.37;81.79
37068;BME280;22982;42.848;25.468;2022-08-01T20:00:56;95935.75;;;19.66;83.73
37068;BME280;22982;42.848;25.468;2022-08-01T20:06:05;95927.78;;;19.66;82.07
37068;BME280;22982;42.848;25.468;2022-08-01T20:16:41;95906.97;;;19.61;83.27
37068;BME280;22982;42.848;25.468;2022-08-01T20:21:50;95947.06;;;19.94;81.40
37068;BME280;22982;42.848;25.468;2022-08-01T20:27:06;95926.19;;;19.73;82.43
37068;BME280;22982;42.848;25.468;2022-08-01T20:32:27;95907.56;;;19.73;82.28
37068;BME280;22982;42.848;25.468;2022-08-01T20:37:33;95951.69;;;19.84;82.39
37068;BME280;22982;42.848;25.468;2022-08-01T20:43:01;95912.34;;;19.69;82.08
37068;BME280;22982;42.848;25.468;2022-08-01T20:48:15;95930.22;;;20.20;80.64
37068;BME280;22982;42.848;25.468;2022-08-01T20:53:18;95948.22;;;19.92;81.10
37068;BME280;22982;42.848;25.468;2022-08-01T20:58:36;95965.03;;;19.92;82.02
37068;BME280;22982;42.848;25.468;2022-08-01T21:03:56;95916.94;;;19.59;81.66
37068;BME280;22982;42.848;25.468;2022-08-01T21:09:05;95944.03;;;19.63;81.05
37068;BME280;22982;42.848;25.468;2022-08-01T21:14:13;95961.25;;;20.03;77.73
37068;BME280;22982;42.848;25.468;2022-08-01T21:19:40;95961.63;;;20.51;73.67
37068;BME280;22982;42.848;25.468;2022-08-01T21:25:00;95955.34;;;20.68;68.69
37068;BME280;22982;42.848;25.468;2022-08-01T21:30:08;95955.00;;;20.63;69.91
37068;BME280;22982;42.848;25.468;2022-08-01T21:35:12;95934.88;;;20.69;68.89
37068;BME280;22982;42.848;25.468;2022-08-01T21:40:21;95956.75;;;21.05;65.17
37068;BME280;22982;42.848;25.468;2022-08-01T21:45:28;95953.09;;;21.22;63.98
37068;BME280;22982;42.848;25.468;2022-08-01T21:50:40;95929.44;;;21.28;63.31
37068;BME280;22982;42.848;25.468;2022-08-01T21:56:07;95965.28;;;21.50;65.97
37068;BME280;22982;42.848;25.468;2022-08-01T22:01:31;95939.25;;;21.44;62.15
37068;BME280;22982;42.848;25.468;2022-08-01T22:06:54;95917.09;;;21.18;64.67
37068;BME280;22982;42.848;25.468;2022-08-01T22:12:04;95945.06;;;21.39;64.23
37068;BME280;22982;42.848;25.468;2022-08-01T22:17:11;95910.91;;;21.26;63.47
37068;BME280;22982;42.848;25.468;2022-08-01T22:22:15;95930.41;;;21.35;64.62
37068;BME280;22982;42.848;25.468;2022-08-01T22:27:38;95906.28;;;21.03;64.20
37068;BME280;22982;42.848;25.468;2022-08-01T22:33:02;95906.78;;;21.07;65.42
37068;BME280;22982;42.848;25.468;2022-08-01T22:38:21;95937.91;;;20.98;65.02
37068;BME280;22982;42.848;25.468;2022-08-01T22:43:29;95920.91;;;20.83;65.88
37068;BME280;22982;42.848;25.468;2022-08-01T22:48:45;95925.41;;;20.99;65.77
37068;BME280;22982;42.848;25.468;2022-08-01T22:54:05;95917.41;;;20.82;66.30
37068;BME280;22982;42.848;25.468;2022-08-01T22:59:26;95912.88;;;20.58;66.53
37068;BME280;22982;42.848;25.468;2022-08-01T23:04:46;95940.69;;;20.72;67.88
37068;BME280;22982;42.848;25.468;2022-08-01T23:09:49;95935.31;;;20.56;68.09
37068;BME280;22982;42.848;25.468;2022-08-01T23:14:57;95933.03;;;20.61;69.18
37068;BME280;22982;42.848;25.468;2022-08-01T23:20:05;95942.97;;;20.51;71.11
37068;BME280;22982;42.848;25.468;2022-08-01T23:25:14;95944.63;;;19.75;75.12
37068;BME280;22982;42.848;25.468;2022-08-01T23:30:16;95942.88;;;19.39;77.82
37068;BME280;22982;42.848;25.468;2022-08-01T23:35:19;95925.25;;;19.12;79.49
37068;BME280;22982;42.848;25.468;2022-08-01T23:40:21;95918.31;;;18.65;81.63
37068;BME280;22982;42.848;25.468;2022-08-01T23:45:26;95919.59;;;18.43;82.53
37068;BME280;22982;42.848;25.468;2022-08-01T23:50:28;95935.28;;;18.36;83.70
37068;BME280;22982;42.848;25.468;2022-08-01T23:55:30;95943.81;;;18.12;86.49
